Time;durP1;ratioP1;P1;durP2;ratioP2;P2;SDS_P1;SDS_P2;PMS_P1;PMS_P2;Temp;Humidity;BMP_temperature;BMP_pressure;BME280_temperature;BME280_humidity;BME280_pressure;Samples;Min_cycle;Max_cycle;Signal;HPM_P1;HPM_P2
2023/06/28 00:00:15;;;;;;;15.48;8.63;;;27.20;75.70;;;;;;4994425;28;20077;-67
2023/06/28 00:02:42;;;;;;;12.77;8.23;;;27.20;74.50;;;;;;4977089;28;20066;-67
2023/06/28 00:05:09;;;;;;;10.23;7.05;;;27.20;74.20;;;;;;4994200;28;20423;-67
2023/06/28 00:07:35;;;;;;;11.27;7.70;;;27.10;74.00;;;;;;4993354;28;20033;-67
2023/06/28 00:10:01;;;;;;;13.57;7.28;;;27.10;74.30;;;;;;4994392;28;20104;-67
2023/06/28 00:12:29;;;;;;;11.02;6.57;;;27.00;73.40;;;;;;4994314;28;20034;-68
2023/06/28 00:14:55;;;;;;;12.10;6.97;;;27.00;73.10;;;;;;4994166;28;20038;-68
2023/06/28 00:17:27;;;;;;;12.68;6.60;;;27.00;72.70;;;;;;4993806;28;20038;-67
2023/06/28 00:19:56;;;;;;;11.98;7.20;;;27.10;71.90;;;;;;4994070;28;20492;-67
2023/06/28 00:22:31;;;;;;;11.88;7.15;;;27.10;71.50;;;;;;4993947;28;20049;-68
2023/06/28 00:24:58;;;;;;;10.98;7.00;;;27.10;71.10;;;;;;4993944;28;20085;-67
2023/06/28 00:27:24;;;;;;;11.20;7.75;;;27.10;71.10;;;;;;4993872;28;20042;-67
2023/06/28 00:29:50;;;;;;;17.00;7.80;;;27.00;71.50;;;;;;4993896;28;20055;-68
2023/06/28 00:32:16;;;;;;;11.88;7.53;;;27.00;71.40;;;;;;4993738;28;20377;-66
2023/06/28 00:34:42;;;;;;;14.82;7.45;;;26.90;71.30;;;;;;4993852;28;20038;-67
2023/06/28 00:37:08;;;;;;;13.50;7.20;;;26.80;70.50;;;;;;4993941;28;20433;-67
2023/06/28 00:39:34;;;;;;;10.30;7.25;;;26.80;70.10;;;;;;4994034;28;20034;-67
2023/06/28 00:42:00;;;;;;;9.85;7.32;;;26.80;70.10;;;;;;4993628;28;20165;-68
2023/06/28 00:44:26;;;;;;;9.18;7.70;;;26.70;70.00;;;;;;4993359;28;20129;-66
2023/06/28 00:46:54;;;;;;;12.18;7.93;;;26.60;69.70;;;;;;4993688;28;20031;-67
2023/06/28 00:49:21;;;;;;;11.80;7.90;;;26.60;69.30;;;;;;4993551;28;20037;-67
2023/06/28 00:51:46;;;;;;;12.98;7.97;;;26.50;69.20;;;;;;4993367;28;20031;-68
2023/06/28 00:54:12;;;;;;;10.02;7.63;;;26.50;69.30;;;;;;4993453;28;20125;-66
2023/06/28 00:56:39;;;;;;;13.35;8.05;;;26.50;68.90;;;;;;4993300;28;20046;-67
2023/06/28 00:59:05;;;;;;;11.93;7.20;;;26.50;68.50;;;;;;4993323;28;20030;-67
2023/06/28 01:01:31;;;;;;;13.73;7.60;;;26.50;68.60;;;;;;4975603;28;20492;-67
2023/06/28 01:04:00;;;;;;;11.60;7.90;;;26.60;68.00;;;;;;4993002;28;20050;-67
2023/06/28 01:06:31;;;;;;;13.45;8.13;;;26.60;67.60;;;;;;4993302;28;20034;-67
2023/06/28 01:08:57;;;;;;;12.18;7.88;;;26.70;67.40;;;;;;4993253;28;20049;-67
2023/06/28 01:11:24;;;;;;;12.63;7.72;;;26.70;66.90;;;;;;4993093;28;20032;-67
2023/06/28 01:13:50;;;;;;;14.13;7.78;;;26.60;66.50;;;;;;4993188;28;20436;-67
2023/06/28 01:16:16;;;;;;;12.25;7.63;;;26.60;66.70;;;;;;4975765;28;20127;-68
2023/06/28 01:18:42;;;;;;;12.90;7.05;;;26.60;66.50;;;;;;4992778;28;20066;-67
2023/06/28 01:21:10;;;;;;;11.68;7.55;;;26.50;66.10;;;;;;4975586;28;20038;-68
2023/06/28 01:23:37;;;;;;;12.15;8.35;;;26.50;66.20;;;;;;4992945;28;20038;-66
2023/06/28 01:26:03;;;;;;;13.00;8.30;;;26.50;65.90;;;;;;4992867;28;20041;-67
2023/06/28 01:28:30;;;;;;;10.77;8.20;;;26.40;65.60;;;;;;4992807;28;20030;-67
2023/06/28 01:30:57;;;;;;;13.50;7.95;;;26.40;65.50;;;;;;4992906;28;20507;-67
2023/06/28 01:33:22;;;;;;;12.32;7.32;;;26.30;64.90;;;;;;4992900;28;20030;-67
2023/06/28 01:35:49;;;;;;;12.75;7.72;;;26.30;64.50;;;;;;4975457;28;20092;-66
2023/06/28 01:38:15;;;;;;;10.57;7.10;;;26.30;64.10;;;;;;4992707;28;20061;-67
2023/06/28 01:40:42;;;;;;;9.52;6.93;;;26.30;64.10;;;;;;4992843;28;20035;-66
2023/06/28 01:43:09;;;;;;;12.73;7.20;;;26.20;64.10;;;;;;4992798;28;20121;-66
2023/06/28 01:45:35;;;;;;;10.05;7.55;;;26.10;63.80;;;;;;4992669;28;20070;-67
2023/06/28 01:48:02;;;;;;;9.68;6.90;;;26.10;63.80;;;;;;4992848;28;20038;-66
2023/06/28 01:50:28;;;;;;;13.32;8.00;;;26.00;64.10;;;;;;4975366;28;20051;-67
2023/06/28 01:52:57;;;;;;;11.15;7.93;;;26.00;64.30;;;;;;4992920;28;20062;-66
2023/06/28 01:55:23;;;;;;;13.00;7.43;;;26.00;64.00;;;;;;4992444;28;20027;-66
2023/06/28 01:57:48;;;;;;;9.77;7.68;;;26.00;64.40;;;;;;4992629;28;20050;-67
2023/06/28 02:00:15;;;;;;;11.55;8.10;;;26.00;64.50;;;;;;4992519;28;20042;-67
2023/06/28 02:02:41;;;;;;;12.13;7.78;;;26.00;64.60;;;;;;4992572;28;20510;-68
2023/06/28 02:05:07;;;;;;;17.90;8.00;;;26.00;64.60;;;;;;4992437;28;20046;-66
2023/06/28 02:07:33;;;;;;;11.45;8.20;;;25.90;64.60;;;;;;4992245;28;20034;-67
2023/06/28 02:09:58;;;;;;;11.02;7.50;;;25.90;64.60;;;;;;4992640;28;20121;-66
2023/06/28 02:12:24;;;;;;;15.18;8.38;;;26.00;64.90;;;;;;4992312;28;20061;-67
2023/06/28 02:14:51;;;;;;;12.68;7.72;;;26.00;64.80;;;;;;4992515;28;20041;-67
2023/06/28 02:17:20;;;;;;;11.02;7.82;;;26.00;64.70;;;;;;4992443;28;20035;-67
2023/06/28 02:19:49;;;;;;;12.18;8.20;;;26.00;64.80;;;;;;4992242;28;20030;-66
2023/06/28 02:22:16;;;;;;;10.75;7.85;;;26.00;64.80;;;;;;4992522;28;20038;-67
2023/06/28 02:24:43;;;;;;;13.07;8.40;;;26.00;64.60;;;;;;4992620;28;20515;-67
2023/06/28 02:27:09;;;;;;;13.65;7.40;;;26.00;64.70;;;;;;4992419;28;20031;-67
2023/06/28 02:29:35;;;;;;;12.05;7.72;;;26.00;64.80;;;;;;4993555;28;20022;-67
2023/06/28 02:32:01;;;;;;;13.20;7.60;;;26.00;64.50;;;;;;4996183;28;20034;-67
2023/06/28 02:34:27;;;;;;;12.93;8.35;;;26.00;64.60;;;;;;4996227;28;20503;-67
2023/06/28 02:36:53;;;;;;;13.40;7.95;;;26.00;64.40;;;;;;4996011;28;20444;-66
2023/06/28 02:39:19;;;;;;;17.90;8.38;;;26.00;64.60;;;;;;4996172;28;20117;-67
2023/06/28 02:41:45;;;;;;;12.80;8.38;;;26.00;64.30;;;;;;4996190;28;20045;-67
2023/06/28 02:44:11;;;;;;;11.85;8.02;;;26.00;64.40;;;;;;4995781;28;20046;-67
2023/06/28 02:46:36;;;;;;;13.55;8.13;;;25.90;64.70;;;;;;4995865;28;20034;-67
2023/06/28 02:49:02;;;;;;;12.73;7.97;;;25.90;64.50;;;;;;4995587;28;20042;-68
2023/06/28 02:51:28;;;;;;;11.57;8.02;;;25.90;64.80;;;;;;4995781;28;20034;-68
2023/06/28 02:53:53;;;;;;;17.90;7.47;;;25.90;64.70;;;;;;4995757;28;20034;-67
2023/06/28 02:56:19;;;;;;;13.48;8.27;;;25.90;64.70;;;;;;4995807;28;20030;-67
2023/06/28 02:58:45;;;;;;;12.98;8.45;;;25.90;64.60;;;;;;4995848;28;20584;-67
2023/06/28 03:01:10;;;;;;;10.95;7.80;;;26.00;64.60;;;;;;4995509;28;20405;-67
2023/06/28 03:03:37;;;;;;;13.55;8.57;;;26.00;64.60;;;;;;4995586;28;20034;-66
2023/06/28 03:06:03;;;;;;;11.55;8.07;;;26.00;64.30;;;;;;4995502;28;20040;-67
2023/06/28 03:08:29;;;;;;;13.25;7.78;;;26.00;64.20;;;;;;4995076;28;20100;-66
2023/06/28 03:10:55;;;;;;;12.93;8.35;;;25.90;64.10;;;;;;4995412;28;20043;-68
2023/06/28 03:13:21;;;;;;;10.40;8.00;;;25.90;64.60;;;;;;4995166;28;20033;-67
2023/06/28 03:15:49;;;;;;;11.90;8.40;;;25.80;64.90;;;;;;4289589;28;20621;-64
2023/06/28 03:18:16;;;;;;;13.13;8.27;;;25.70;65.30;;;;;;4995048;28;20038;-68
2023/06/28 03:20:42;;;;;;;12.50;8.05;;;25.60;65.60;;;;;;4995266;28;20038;-66
2023/06/28 03:23:07;;;;;;;13.23;8.07;;;25.50;66.10;;;;;;4994986;28;20030;-66
2023/06/28 03:25:33;;;;;;;13.80;8.73;;;25.50;66.30;;;;;;4994948;28;20369;-66
2023/06/28 03:28:00;;;;;;;16.85;8.40;;;25.40;66.60;;;;;;4995235;28;20049;-66
2023/06/28 03:30:25;;;;;;;13.85;8.00;;;25.40;66.80;;;;;;4994689;28;20109;-66
2023/06/28 03:32:51;;;;;;;10.95;7.47;;;25.50;66.90;;;;;;4995219;28;20057;-67
2023/06/28 03:35:17;;;;;;;11.52;7.72;;;25.30;66.70;;;;;;4994974;28;20037;-67
2023/06/28 03:37:53;;;;;;;13.57;8.90;;;25.30;66.80;;;;;;4994915;28;20054;-67
2023/06/28 03:40:20;;;;;;;12.75;8.27;;;25.30;66.60;;;;;;4994920;28;20074;-67
2023/06/28 03:42:47;;;;;;;12.52;8.40;;;25.30;66.90;;;;;;4995130;28;20046;-67
2023/06/28 21:45:43;;;;;;;20.20;7.50;;;27.40;72.90;;;;;;5010057;28;20042;-76
2023/06/28 21:48:08;;;;;;;20.90;7.25;;;27.40;73.80;;;;;;5012347;28;20478;-76
2023/06/28 21:50:34;;;;;;;23.38;7.75;;;27.30;74.10;;;;;;5012594;28;20034;-77
2023/06/28 21:53:00;;;;;;;17.38;6.40;;;27.30;74.70;;;;;;5012808;28;20495;-77
2023/06/28 21:55:25;;;;;;;22.33;7.28;;;27.40;74.60;;;;;;5012620;28;20112;-76
2023/06/28 21:57:51;;;;;;;16.58;6.57;;;27.40;74.50;;;;;;5012394;28;20084;-76
2023/06/28 22:00:25;;;;;;;15.23;6.43;;;27.40;74.50;;;;;;5012462;28;20053;-76
2023/06/28 22:02:51;;;;;;;18.63;7.13;;;27.40;73.80;;;;;;5012267;28;20112;-77
2023/06/28 22:05:18;;;;;;;20.20;7.60;;;27.40;74.00;;;;;;5012105;28;20081;-77
2023/06/28 22:07:44;;;;;;;19.35;6.88;;;27.40;74.40;;;;;;5012061;28;20475;-76
2023/06/28 22:10:10;;;;;;;11.75;6.22;;;27.40;74.50;;;;;;5011987;28;20041;-75
2023/06/28 22:12:37;;;;;;;16.42;7.70;;;27.40;74.30;;;;;;5011944;28;20034;-76
2023/06/28 22:15:04;;;;;;;16.25;6.28;;;27.40;74.50;;;;;;5012183;28;20037;-76
2023/06/28 22:17:31;;;;;;;16.02;6.72;;;27.40;74.30;;;;;;5012208;28;20058;-76
2023/06/28 22:19:57;;;;;;;17.83;6.57;;;27.40;74.40;;;;;;5012007;28;20438;-77
2023/06/28 22:22:23;;;;;;;17.35;7.32;;;27.40;74.70;;;;;;5012041;28;20117;-76
2023/06/28 22:24:49;;;;;;;20.67;7.45;;;27.30;74.70;;;;;;5011823;28;20125;-76
2023/06/28 22:27:16;;;;;;;15.55;6.78;;;27.30;74.90;;;;;;5013581;28;20504;-75
2023/06/28 22:29:41;;;;;;;14.70;6.45;;;27.30;75.40;;;;;;5010672;28;20125;-76
2023/06/28 22:32:07;;;;;;;22.27;7.38;;;27.20;75.40;;;;;;5012008;28;20034;-77
2023/06/28 22:34:33;;;;;;;18.08;7.15;;;27.20;75.80;;;;;;5012561;28;20089;-75
2023/06/28 22:36:59;;;;;;;21.15;7.07;;;27.20;75.80;;;;;;5012483;28;20048;-75
2023/06/28 22:39:25;;;;;;;19.88;8.18;;;27.20;76.10;;;;;;5012125;28;20032;-76
2023/06/28 22:41:51;;;;;;;17.27;7.15;;;27.10;76.00;;;;;;5012150;28;20042;-75
2023/06/28 22:44:17;;;;;;;20.70;7.32;;;27.20;76.30;;;;;;5023707;28;20045;-75
2023/06/28 22:46:43;;;;;;;20.95;7.95;;;27.20;76.20;;;;;;5038931;28;20061;-76
2023/06/28 22:49:09;;;;;;;17.38;7.75;;;27.20;76.10;;;;;;5035420;28;20102;-76
2023/06/28 22:51:39;;;;;;;22.77;7.63;;;27.30;76.30;;;;;;5035337;28;20033;-75
2023/06/28 22:54:06;;;;;;;18.42;8.50;;;27.20;76.30;;;;;;5035037;28;20068;-75
2023/06/28 22:56:33;;;;;;;18.40;7.18;;;27.20;76.60;;;;;;5035192;28;20033;-76
2023/06/28 22:58:59;;;;;;;21.65;7.93;;;27.20;76.50;;;;;;5035050;28;20087;-76
2023/06/28 23:01:25;;;;;;;18.48;7.45;;;27.20;76.40;;;;;;5035002;28;20033;-76
2023/06/28 23:03:50;;;;;;;18.73;7.03;;;27.10;76.50;;;;;;5035096;28;20061;-76
2023/06/28 23:06:16;;;;;;;19.35;7.32;;;27.10;76.50;;;;;;5034723;28;20037;-76
2023/06/28 23:08:42;;;;;;;17.13;6.95;;;27.10;76.30;;;;;;5034961;28;20030;-76
2023/06/28 23:11:08;;;;;;;12.93;5.85;;;27.10;75.90;;;;;;5034843;28;20387;-77
2023/06/28 23:13:34;;;;;;;15.98;6.15;;;27.10;75.70;;;;;;5034534;28;20033;-76
2023/06/28 23:16:01;;;;;;;18.90;7.13;;;27.10;75.30;;;;;;5035068;28;20042;-77
2023/06/28 23:18:27;;;;;;;17.65;6.90;;;27.10;75.30;;;;;;5035035;28;20475;-76
2023/06/28 23:20:54;;;;;;;18.80;7.28;;;27.10;75.20;;;;;;5034906;28;20125;-75
2023/06/28 23:23:22;;;;;;;21.17;7.43;;;27.10;75.40;;;;;;5034566;28;20056;-76
2023/06/28 23:25:51;;;;;;;16.33;6.85;;;27.10;75.40;;;;;;5034777;28;20087;-77
2023/06/28 23:28:18;;;;;;;20.75;7.18;;;27.10;75.00;;;;;;5016618;28;20057;-75
2023/06/28 23:30:44;;;;;;;20.90;7.25;;;27.10;74.90;;;;;;5034906;28;20503;-76
2023/06/28 23:33:14;;;;;;;17.17;6.97;;;27.10;74.50;;;;;;5034611;28;20044;-76
2023/06/28 23:35:44;;;;;;;17.13;7.28;;;27.20;74.30;;;;;;5034295;28;20041;-76
2023/06/28 23:38:13;;;;;;;13.57;6.55;;;27.20;74.30;;;;;;5034687;28;20033;-76
2023/06/28 23:40:40;;;;;;;19.45;7.68;;;27.10;74.40;;;;;;5050545;28;20037;-77
2023/06/28 23:43:07;;;;;;;15.35;7.10;;;27.00;74.00;;;;;;5034610;28;20171;-76
2023/06/28 23:45:34;;;;;;;14.45;6.97;;;27.00;74.50;;;;;;5034576;28;20449;-75
2023/06/28 23:48:01;;;;;;;15.32;7.15;;;26.90;74.60;;;;;;5034096;28;20037;-75
2023/06/28 23:50:29;;;;;;;14.13;6.60;;;27.00;74.60;;;;;;5034255;28;20144;-76
2023/06/28 23:52:56;;;;;;;18.55;7.03;;;27.00;73.70;;;;;;5034573;28;20188;-76
2023/06/28 23:55:24;;;;;;;20.17;7.68;;;27.10;73.80;;;;;;5034189;28;20136;-76
2023/06/28 23:57:52;;;;;;;16.42;7.25;;;27.10;73.50;;;;;;5033884;28;20034;-76
